createdAt,value
2018-07-20T00:01:35.846Z,5.20
2018-07-20T00:04:07.862Z,2.20
2018-07-20T00:06:39.766Z,8.23
2018-07-20T00:09:11.643Z,2.47
2018-07-20T00:11:43.142Z,4.07
2018-07-20T00:14:14.711Z,1.93
2018-07-20T00:16:46.146Z,2.10
2018-07-20T00:19:17.835Z,2.37
2018-07-20T00:21:49.602Z,4.17
2018-07-20T00:24:21.193Z,3.90
2018-07-20T00:26:53.056Z,2.83
2018-07-20T00:29:24.589Z,2.40
2018-07-20T00:31:55.854Z,1.93
2018-07-20T00:34:27.429Z,2.40
2018-07-20T00:36:58.938Z,2.53
2018-07-20T00:39:30.581Z,3.10
2018-07-20T00:42:02.533Z,2.60
2018-07-20T00:44:34.125Z,3.23
2018-07-20T00:47:05.754Z,2.83
2018-07-20T00:49:37.242Z,3.10
2018-07-20T00:52:09.152Z,2.27
2018-07-20T00:54:40.806Z,2.27
2018-07-20T00:57:12.004Z,2.47
2018-07-20T00:59:43.737Z,2.87
2018-07-20T01:02:14.946Z,2.00
2018-07-20T01:04:46.296Z,3.27
2018-07-20T01:07:17.988Z,2.67
2018-07-20T01:09:49.872Z,2.13
2018-07-20T01:12:21.122Z,5.13
2018-07-20T01:14:52.028Z,2.03
2018-07-20T01:17:23.336Z,2.07
2018-07-20T01:19:54.983Z,2.20
2018-07-20T01:22:26.506Z,2.30
2018-07-20T01:24:58.519Z,2.10
2018-07-20T01:27:30.071Z,2.23
2018-07-20T01:30:02.116Z,3.23
2018-07-20T01:32:33.663Z,2.97
2018-07-20T01:35:05.257Z,2.07
2018-07-20T01:37:36.828Z,2.80
2018-07-20T01:40:09.049Z,2.23
2018-07-20T01:42:40.604Z,3.00
2018-07-20T01:45:12.157Z,2.10
2018-07-20T01:47:43.789Z,2.70
2018-07-20T01:50:15.358Z,2.03
2018-07-20T01:52:46.983Z,2.43
2018-07-20T01:55:18.617Z,2.37
2018-07-20T01:57:50.305Z,2.30
2018-07-20T02:00:21.523Z,2.97
2018-07-20T02:02:52.788Z,2.43
2018-07-20T02:05:24.345Z,2.87
2018-07-20T02:07:56.020Z,2.20
2018-07-20T02:10:27.834Z,2.93
2018-07-20T02:12:59.540Z,3.33
2018-07-20T02:15:30.653Z,2.03
2018-07-20T02:18:02.020Z,2.53
2018-07-20T02:20:33.883Z,2.30
2018-07-20T02:23:05.767Z,4.10
2018-07-20T02:25:37.523Z,2.23
2018-07-20T02:28:09.302Z,3.50
2018-07-20T02:30:41.106Z,2.30
2018-07-20T02:33:12.624Z,3.30
2018-07-20T02:35:44.501Z,2.40
2018-07-20T02:38:16.343Z,3.33
2018-07-20T02:40:47.813Z,3.10
2018-07-20T02:43:19.406Z,2.60
2018-07-20T02:45:51.032Z,2.93
2018-07-20T02:48:22.623Z,2.90
2018-07-20T02:50:53.801Z,4.40
2018-07-20T02:56:42.781Z,2.63
2018-07-20T02:59:14.468Z,2.47
2018-07-20T03:01:46.378Z,2.93
2018-07-20T03:04:18.399Z,2.90
2018-07-20T03:06:49.955Z,5.37
2018-07-20T03:09:21.446Z,3.33
2018-07-20T03:11:53.078Z,4.50
2018-07-20T03:14:24.840Z,4.77
2018-07-20T03:16:56.995Z,4.13
2018-07-20T03:19:28.445Z,4.00
2018-07-20T03:21:59.851Z,4.83
2018-07-20T03:24:31.410Z,3.60
2018-07-20T03:27:02.912Z,3.10
2018-07-20T03:29:35.036Z,2.87
2018-07-20T03:32:06.910Z,3.27
2018-07-20T03:34:38.109Z,3.50
2018-07-20T03:37:09.585Z,2.97
2018-07-20T03:39:41.465Z,2.50
2018-07-20T03:42:12.653Z,4.27
2018-07-20T03:44:44.049Z,5.67
2018-07-20T03:47:15.342Z,3.30
2018-07-20T03:49:46.761Z,4.50
2018-07-20T03:52:18.759Z,3.03
2018-07-20T03:54:50.451Z,4.03
2018-07-20T03:57:21.878Z,4.03
2018-07-20T03:59:53.690Z,3.90
2018-07-20T04:02:25.138Z,4.97
2018-07-20T04:04:56.597Z,3.60
2018-07-20T04:07:28.089Z,3.53
2018-07-20T04:09:59.790Z,3.00
2018-07-20T04:12:30.990Z,3.23
2018-07-20T04:15:02.666Z,3.07
2018-07-20T04:17:40.675Z,3.30
2018-07-20T04:20:13.549Z,3.50
2018-07-20T04:22:45.393Z,3.27
2018-07-20T04:25:17.036Z,5.63
2018-07-20T04:27:49.392Z,3.80
2018-07-20T04:30:22.381Z,3.00
2018-07-20T04:32:54.493Z,3.03
2018-07-20T04:35:26.300Z,3.03
2018-07-20T04:37:57.937Z,5.23
2018-07-20T04:40:29.385Z,4.27
2018-07-20T04:43:02.447Z,4.13
2018-07-20T04:45:34.206Z,5.20
2018-07-20T04:48:06.431Z,3.50
2018-07-20T04:50:39.028Z,4.10
2018-07-20T04:53:10.701Z,6.90
2018-07-20T04:55:42.980Z,3.20
2018-07-20T04:58:16.378Z,4.50
2018-07-20T05:00:48.572Z,4.63
2018-07-20T05:03:21.266Z,4.40
2018-07-20T05:05:52.369Z,3.00
2018-07-20T05:08:23.806Z,4.27
2018-07-20T05:10:55.225Z,4.20
2018-07-20T05:13:26.867Z,3.17
2018-07-20T05:15:59.100Z,3.20
2018-07-20T05:18:30.518Z,5.10
2018-07-20T05:21:02.225Z,3.17
2018-07-20T05:23:35.370Z,3.50
2018-07-20T05:26:07.570Z,4.00
2018-07-20T05:28:39.620Z,3.67
2018-07-20T05:31:12.550Z,4.40
2018-07-20T05:33:44.501Z,4.53
2018-07-20T05:36:17.462Z,3.43
2018-07-20T05:38:49.664Z,3.63
2018-07-20T05:41:21.218Z,4.03
2018-07-20T05:43:53.336Z,4.40
2018-07-20T05:49:23.192Z,7.93
2018-07-20T05:51:55.492Z,5.30
2018-07-20T05:54:27.291Z,5.27
2018-07-20T05:56:58.832Z,4.80
2018-07-20T05:59:30.287Z,4.63
2018-07-20T06:02:03.325Z,5.87
2018-07-20T06:04:35.123Z,4.70
2018-07-20T06:07:06.421Z,4.73
2018-07-20T06:09:37.417Z,7.17
2018-07-20T06:12:09.293Z,8.73
2018-07-20T06:14:40.957Z,5.20
2018-07-20T06:17:12.832Z,6.47
2018-07-20T06:19:45.395Z,7.23
2018-07-20T06:22:17.048Z,4.47
2018-07-20T06:24:48.483Z,6.23
2018-07-20T06:27:20.188Z,4.97
2018-07-20T06:29:51.984Z,5.27
2018-07-20T06:32:23.669Z,5.40
2018-07-20T06:34:55.307Z,4.63
2018-07-20T06:37:26.809Z,5.50
2018-07-20T06:39:58.313Z,5.83
2018-07-20T06:42:29.806Z,5.23
2018-07-20T06:45:01.391Z,21.77
2018-07-20T06:47:33.772Z,11.43
2018-07-20T06:50:10.631Z,8.53
2018-07-20T06:52:42.117Z,10.50
2018-07-20T06:55:13.691Z,7.37
2018-07-20T06:57:45.762Z,7.93
2018-07-20T07:00:18.955Z,6.20
2018-07-20T07:02:50.394Z,5.57
2018-07-20T07:05:21.936Z,6.63
2018-07-20T07:07:53.082Z,6.17
2018-07-20T07:10:24.900Z,6.60
2018-07-20T07:12:56.514Z,5.67
2018-07-20T07:15:28.197Z,5.67
2018-07-20T07:17:59.854Z,6.33
2018-07-20T07:20:31.321Z,6.03
2018-07-20T07:23:03.104Z,7.20
2018-07-20T07:25:35.403Z,7.07
2018-07-20T07:28:07.510Z,5.67
2018-07-20T07:30:39.040Z,6.17
2018-07-20T07:33:11.001Z,5.17
2018-07-20T07:35:42.941Z,6.63
2018-07-20T07:38:14.981Z,4.73
2018-07-20T07:40:47.269Z,5.93
2018-07-20T07:43:18.932Z,7.13
2018-07-20T07:45:50.526Z,4.97
2018-07-20T07:48:21.722Z,8.27
2018-07-20T07:50:53.225Z,5.37
2018-07-20T07:53:25.027Z,5.17
2018-07-20T07:55:56.657Z,5.77
2018-07-20T07:58:28.207Z,5.33
2018-07-20T08:01:00.175Z,5.80
2018-07-20T08:03:32.070Z,5.87
2018-07-20T08:06:04.212Z,6.47
2018-07-20T08:08:35.712Z,6.00
2018-07-20T08:11:07.412Z,5.23
2018-07-20T08:13:39.093Z,5.07
2018-07-20T08:16:10.468Z,6.60
2018-07-20T08:18:41.898Z,5.40
2018-07-20T08:21:13.606Z,5.77
2018-07-20T08:23:45.508Z,6.40
2018-07-20T08:26:17.283Z,6.50
2018-07-20T08:28:48.954Z,6.73
2018-07-20T08:31:20.699Z,10.27
2018-07-20T08:33:58.858Z,7.13
2018-07-20T08:36:30.332Z,8.10
2018-07-20T08:39:02.313Z,7.20
2018-07-20T08:41:34.287Z,9.50
2018-07-20T08:44:05.879Z,8.00
2018-07-20T08:46:37.635Z,7.70
2018-07-20T08:49:09.662Z,9.13
2018-07-20T08:51:41.589Z,10.10
2018-07-20T08:54:13.379Z,10.70
2018-07-20T08:56:44.987Z,10.33
2018-07-20T08:59:16.738Z,10.27
2018-07-20T09:01:49.009Z,9.43
2018-07-20T09:04:20.854Z,7.80
2018-07-20T09:06:52.305Z,8.33
2018-07-20T09:09:23.509Z,8.33
2018-07-20T09:11:54.808Z,15.17
2018-07-20T09:14:26.977Z,12.97
2018-07-20T09:16:58.418Z,14.17
2018-07-20T09:19:30.148Z,10.63
2018-07-20T09:22:02.657Z,11.95
2018-07-20T09:24:35.035Z,17.10
2018-07-20T09:27:06.818Z,11.33
2018-07-20T09:29:38.321Z,9.97
2018-07-20T09:32:10.479Z,11.73
2018-07-20T09:34:41.893Z,11.23
2018-07-20T09:37:13.984Z,8.43
2018-07-20T09:39:46.138Z,8.00
2018-07-20T09:42:17.919Z,9.00
2018-07-20T09:44:49.424Z,10.87
2018-07-20T09:47:21.518Z,10.08
2018-07-20T09:49:53.653Z,7.55
2018-07-20T09:52:26.067Z,8.23
2018-07-20T09:54:58.393Z,7.85
2018-07-20T09:57:30.746Z,7.95
2018-07-20T10:00:03.328Z,7.78
2018-07-20T10:02:35.522Z,7.65
2018-07-20T10:05:09.049Z,9.40
2018-07-20T10:07:41.552Z,9.08
2018-07-20T10:10:14.046Z,8.65
2018-07-20T10:12:46.201Z,12.95
2018-07-20T10:15:18.325Z,10.43
2018-07-20T10:17:51.706Z,12.10
2018-07-20T10:20:23.801Z,8.68
2018-07-20T10:22:55.946Z,9.33
2018-07-20T10:25:28.310Z,8.35
2018-07-20T10:28:01.202Z,10.48
2018-07-20T10:30:33.390Z,7.80
2018-07-20T10:33:05.868Z,7.92
2018-07-20T10:35:38.711Z,7.28
2018-07-20T10:38:10.968Z,7.28
2018-07-20T10:40:43.186Z,8.33
2018-07-20T10:43:15.631Z,11.93
2018-07-20T10:45:48.006Z,7.03
2018-07-20T10:48:21.482Z,8.28
2018-07-20T10:50:53.884Z,9.43
2018-07-20T10:53:26.367Z,8.85
2018-07-20T10:55:58.464Z,8.65
2018-07-20T10:58:30.557Z,8.38
2018-07-20T11:01:02.773Z,8.23
2018-07-20T11:03:34.883Z,7.65
2018-07-20T11:06:07.799Z,8.28
2018-07-20T11:08:39.587Z,8.25
2018-07-20T11:11:12.436Z,8.68
2018-07-20T11:13:44.588Z,8.70
2018-07-20T11:16:16.628Z,8.15
2018-07-20T11:18:48.983Z,7.22
2018-07-20T11:21:21.345Z,7.28
2018-07-20T11:23:53.542Z,8.35
2018-07-20T11:26:25.290Z,7.20
2018-07-20T11:28:57.318Z,7.92
2018-07-20T11:31:29.535Z,7.65
2018-07-20T11:34:01.541Z,10.23
2018-07-20T11:36:33.500Z,7.67
2018-07-20T11:39:09.366Z,8.33
2018-07-20T11:41:41.635Z,11.30
2018-07-20T11:44:13.907Z,13.65
2018-07-20T11:46:46.784Z,9.55
2018-07-20T11:49:18.797Z,9.38
2018-07-20T11:51:51.076Z,6.17
2018-07-20T11:54:23.320Z,7.22
2018-07-20T11:56:55.084Z,9.18
2018-07-20T11:59:27.302Z,10.10
2018-07-20T12:01:59.981Z,6.67
2018-07-20T12:04:32.754Z,7.22
2018-07-20T12:07:04.832Z,7.85
2018-07-20T12:09:36.615Z,7.10
2018-07-20T12:12:08.817Z,8.98
2018-07-20T12:14:41.249Z,8.35
2018-07-20T12:17:13.381Z,6.67
2018-07-20T12:19:45.097Z,7.17
2018-07-20T12:22:17.681Z,6.75
2018-07-20T12:24:49.758Z,6.30
2018-07-20T12:27:22.314Z,6.72
2018-07-20T12:29:54.341Z,9.28
2018-07-20T12:32:26.356Z,8.38
2018-07-20T12:35:03.100Z,7.75
2018-07-20T12:37:35.497Z,7.05
2018-07-20T12:40:08.078Z,6.97
2018-07-20T12:42:40.340Z,6.20
2018-07-20T12:45:12.681Z,7.90
2018-07-20T12:47:44.857Z,7.50
2018-07-20T12:50:17.575Z,8.38
2018-07-20T12:52:50.250Z,6.92
2018-07-20T12:55:23.106Z,5.25
2018-07-20T12:57:55.022Z,5.83
2018-07-20T13:00:27.542Z,6.20
2018-07-20T13:02:59.728Z,6.22
2018-07-20T13:05:31.837Z,6.08
2018-07-20T13:08:04.651Z,6.90
2018-07-20T13:10:36.800Z,4.65
2018-07-20T13:13:09.172Z,5.15
2018-07-20T13:15:41.386Z,5.10
2018-07-20T13:18:13.492Z,5.20
2018-07-20T13:20:45.933Z,5.10
2018-07-20T13:23:19.009Z,5.40
2018-07-20T13:25:51.293Z,5.87
2018-07-20T13:28:23.555Z,5.22
2018-07-20T13:30:55.824Z,5.28
2018-07-20T13:33:28.622Z,4.22
2018-07-20T13:36:01.107Z,4.87
2018-07-20T13:38:33.881Z,5.12
2018-07-20T13:41:06.300Z,6.55
2018-07-20T13:43:38.446Z,5.78
2018-07-20T13:46:11.217Z,7.37
2018-07-20T13:48:44.330Z,4.65
2018-07-20T13:51:16.581Z,5.05
2018-07-20T13:53:48.879Z,5.60
2018-07-20T13:56:21.408Z,4.12
2018-07-20T13:58:53.644Z,4.08
2018-07-20T14:01:25.866Z,4.50
2018-07-20T14:03:58.540Z,6.47
2018-07-20T14:06:30.791Z,4.22
2018-07-20T14:09:02.901Z,4.28
2018-07-20T14:11:35.384Z,5.70
2018-07-20T14:14:08.604Z,4.00
2018-07-20T14:16:41.224Z,6.78
2018-07-20T14:19:13.709Z,3.77
2018-07-20T14:21:45.824Z,4.65
2018-07-20T14:24:18.138Z,4.33
2018-07-20T14:26:50.712Z,3.98
2018-07-20T14:29:23.098Z,4.12
2018-07-20T14:31:56.206Z,3.72
2018-07-20T14:34:28.647Z,5.55
2018-07-20T14:37:00.859Z,6.03
2018-07-20T14:39:32.710Z,5.05
2018-07-20T14:42:05.257Z,3.85
2018-07-20T14:44:37.527Z,3.75
2018-07-20T14:47:09.639Z,3.50
2018-07-20T14:49:41.725Z,5.03
2018-07-20T14:52:13.815Z,5.00
2018-07-20T14:54:46.241Z,3.85
2018-07-20T14:57:18.594Z,3.75
2018-07-20T14:59:50.890Z,4.35
2018-07-20T15:02:23.088Z,3.80
2018-07-20T15:04:56.323Z,3.67
2018-07-20T15:07:28.726Z,7.47
2018-07-20T15:10:00.881Z,3.58
2018-07-20T15:12:32.986Z,4.35
2018-07-20T15:15:06.438Z,4.70
2018-07-20T15:17:39.207Z,3.62
2018-07-20T15:20:11.830Z,4.20
2018-07-20T15:22:43.941Z,3.77
2018-07-20T15:25:16.181Z,3.60
2018-07-20T15:27:48.281Z,5.87
2018-07-20T15:30:20.532Z,3.50
2018-07-20T15:32:52.567Z,4.12
2018-07-20T15:35:25.061Z,3.75
2018-07-20T15:37:57.175Z,5.17
2018-07-20T15:40:29.202Z,3.72
2018-07-20T15:43:01.446Z,3.35
2018-07-20T15:45:33.530Z,3.45
2018-07-20T15:48:06.100Z,4.05
2018-07-20T15:50:38.723Z,3.62
2018-07-20T15:53:37.968Z,4.55
2018-07-20T15:55:42.929Z,3.67
2018-07-20T15:58:15.268Z,4.30
2018-07-20T16:00:49.060Z,4.03
2018-07-20T16:03:22.146Z,4.45
2018-07-20T16:05:54.363Z,4.37
2018-07-20T16:08:27.020Z,7.03
2018-07-20T16:10:59.213Z,4.78
2018-07-20T16:13:31.412Z,4.40
2018-07-20T16:16:03.513Z,4.35
2018-07-20T16:18:35.652Z,5.03
2018-07-20T16:21:08.550Z,4.42
2018-07-20T16:23:40.550Z,4.60
2018-07-20T16:26:12.719Z,4.60
2018-07-20T16:28:44.839Z,5.17
2018-07-20T16:31:17.217Z,6.15
2018-07-20T16:33:49.238Z,4.70
2018-07-20T16:36:21.371Z,6.70
2018-07-20T16:38:53.529Z,7.85
2018-07-20T16:41:25.654Z,5.28
2018-07-20T16:43:57.810Z,7.30
2018-07-20T16:46:29.954Z,8.80
2018-07-20T16:49:02.380Z,5.17
2018-07-20T16:51:34.825Z,4.45
2018-07-20T16:54:06.991Z,4.92
2018-07-20T16:56:39.384Z,5.92
2018-07-20T16:59:11.708Z,6.00
2018-07-20T17:01:43.896Z,5.90
2018-07-20T17:04:15.917Z,4.78
2018-07-20T17:06:48.031Z,5.92
2018-07-20T17:09:20.086Z,5.60
2018-07-20T17:11:52.135Z,8.00
2018-07-20T17:14:24.321Z,5.35
2018-07-20T17:16:56.439Z,6.87
2018-07-20T17:19:28.516Z,5.80
2018-07-20T17:22:00.929Z,6.10
2018-07-20T17:24:33.226Z,5.60
2018-07-20T17:27:05.498Z,6.80
2018-07-20T17:29:37.621Z,5.12
2018-07-20T17:32:09.721Z,7.30
2018-07-20T17:34:41.703Z,5.30
2018-07-20T17:37:19.810Z,7.10
2018-07-20T17:39:51.893Z,7.22
2018-07-20T17:42:24.200Z,6.28
2018-07-20T17:44:56.488Z,6.95
2018-07-20T17:47:28.538Z,6.55
2018-07-20T17:50:00.692Z,6.47
2018-07-20T17:52:32.809Z,6.50
2018-07-20T17:55:05.703Z,5.42
2018-07-20T17:57:37.824Z,7.80
2018-07-20T18:00:10.587Z,8.83
2018-07-20T18:02:43.325Z,9.70
2018-07-20T18:05:15.412Z,6.72
2018-07-20T18:07:47.463Z,5.78
2018-07-20T18:10:19.692Z,5.33
2018-07-20T18:12:51.921Z,5.75
2018-07-20T18:15:24.727Z,10.70
2018-07-20T18:17:56.984Z,6.92
2018-07-20T18:20:30.063Z,5.37
2018-07-20T18:23:02.212Z,5.05
2018-07-20T18:25:34.377Z,4.75
2018-07-20T18:28:06.650Z,5.55
2018-07-20T18:30:38.778Z,6.83
2018-07-20T18:33:11.617Z,6.05
2018-07-20T18:35:43.845Z,7.37
2018-07-20T18:38:17.171Z,7.65
2018-07-20T18:40:49.213Z,5.08
2018-07-20T18:43:24.211Z,4.58
2018-07-20T18:45:56.399Z,6.03
2018-07-20T18:48:28.483Z,6.58
2018-07-20T18:51:01.095Z,4.55
2018-07-20T18:53:32.552Z,4.80
2018-07-20T18:56:04.864Z,4.67
2018-07-20T18:58:37.321Z,4.78
2018-07-20T19:01:09.674Z,5.05
2018-07-20T19:03:41.841Z,6.87
2018-07-20T19:06:13.990Z,4.40
2018-07-20T19:08:46.159Z,7.30
2018-07-20T19:11:18.521Z,4.00
2018-07-20T19:13:50.490Z,3.93
2018-07-20T19:16:22.074Z,5.03
2018-07-20T19:18:54.280Z,4.97
2018-07-20T19:21:26.707Z,9.88
2018-07-20T19:23:58.319Z,6.67
2018-07-20T19:26:30.133Z,5.13
2018-07-20T19:29:01.816Z,4.25
2018-07-20T19:31:33.799Z,3.63
2018-07-20T19:34:05.379Z,4.77
2018-07-20T19:36:38.243Z,4.63
2018-07-20T19:39:11.196Z,3.93
2018-07-20T19:41:42.784Z,4.73
2018-07-20T19:44:15.590Z,4.33
2018-07-20T19:46:47.708Z,4.87
2018-07-20T19:49:19.289Z,5.20
2018-07-20T19:51:52.364Z,5.97
2018-07-20T19:54:24.316Z,5.47
2018-07-20T19:56:56.136Z,9.77
2018-07-20T19:59:27.620Z,7.33
2018-07-20T20:01:59.206Z,9.90
2018-07-20T20:04:30.751Z,8.83
2018-07-20T20:07:02.527Z,5.07
2018-07-20T20:09:33.982Z,5.00
2018-07-20T20:12:05.997Z,4.37
2018-07-20T20:14:37.580Z,5.50
2018-07-20T20:17:09.167Z,3.37
2018-07-20T20:19:40.626Z,5.17
2018-07-20T20:22:12.220Z,4.57
2018-07-20T20:24:43.785Z,4.43
2018-07-20T20:27:15.365Z,3.43
2018-07-20T20:29:46.990Z,3.70
2018-07-20T20:32:18.675Z,4.67
2018-07-20T20:34:50.338Z,3.40
2018-07-20T20:37:21.899Z,4.40
2018-07-20T20:39:53.532Z,4.23
2018-07-20T20:42:25.139Z,3.57
2018-07-20T20:44:57.073Z,3.60
2018-07-20T20:47:28.607Z,6.30
2018-07-20T20:50:00.241Z,5.10
2018-07-20T20:52:31.760Z,3.17
2018-07-20T20:55:04.111Z,3.80
2018-07-20T20:57:35.937Z,3.03
2018-07-20T21:00:09.751Z,3.73
2018-07-20T21:02:41.658Z,2.93
2018-07-20T21:05:13.198Z,3.73
2018-07-20T21:07:44.860Z,3.87
2018-07-20T21:10:16.361Z,3.27
2018-07-20T21:12:48.403Z,3.40
2018-07-20T21:15:19.952Z,3.07
2018-07-20T21:17:51.599Z,2.97
2018-07-20T21:20:23.241Z,4.83
2018-07-20T21:22:55.226Z,3.43
2018-07-20T21:25:27.074Z,5.43
2018-07-20T21:27:58.758Z,4.53
2018-07-20T21:30:31.402Z,4.27
2018-07-20T21:33:02.956Z,3.27
2018-07-20T21:35:34.550Z,3.23
2018-07-20T21:38:06.510Z,3.23
2018-07-20T21:40:38.175Z,4.47
2018-07-20T21:43:09.754Z,2.93
2018-07-20T21:45:41.258Z,3.13
2018-07-20T21:48:12.724Z,4.73
2018-07-20T21:50:44.450Z,3.43
2018-07-20T21:53:16.209Z,3.60
2018-07-20T21:55:47.785Z,3.87
2018-07-20T21:58:19.375Z,2.83
2018-07-20T22:00:51.444Z,6.50
2018-07-20T22:03:23.345Z,4.80
2018-07-20T22:05:54.985Z,4.43
2018-07-20T22:08:26.531Z,2.93
2018-07-20T22:10:58.478Z,3.13
2018-07-20T22:13:30.051Z,3.23
2018-07-20T22:16:01.893Z,4.07
2018-07-20T22:18:33.333Z,4.83
2018-07-20T22:21:05.193Z,3.77
2018-07-20T22:23:36.665Z,3.93
2018-07-20T22:26:08.658Z,3.50
2018-07-20T22:28:40.121Z,3.20
2018-07-20T22:31:11.609Z,3.50
2018-07-20T22:33:43.068Z,3.30
2018-07-20T22:36:14.546Z,3.17
2018-07-20T22:38:46.120Z,3.43
2018-07-20T22:41:17.651Z,4.53
2018-07-20T22:43:49.124Z,3.70
2018-07-20T22:46:20.602Z,2.87
2018-07-20T22:48:53.381Z,3.87
2018-07-20T22:51:24.970Z,4.13
2018-07-20T22:53:56.556Z,4.00
2018-07-20T22:56:28.506Z,4.27
2018-07-20T22:58:59.969Z,4.53
2018-07-20T23:01:31.665Z,3.17
2018-07-20T23:04:03.213Z,4.57
2018-07-20T23:06:34.968Z,5.80
2018-07-20T23:09:09.442Z,2.93
2018-07-20T23:11:41.241Z,3.40
2018-07-20T23:14:12.738Z,4.07
2018-07-20T23:16:44.206Z,3.40
2018-07-20T23:19:15.683Z,3.73
2018-07-20T23:21:47.093Z,4.70
2018-07-20T23:24:18.495Z,4.10
2018-07-20T23:26:50.122Z,5.13
2018-07-20T23:29:21.662Z,3.73
2018-07-20T23:31:53.293Z,3.13
2018-07-20T23:34:25.446Z,5.63
2018-07-20T23:36:57.145Z,3.27
2018-07-20T23:39:28.642Z,3.10
2018-07-20T23:42:00.185Z,3.07
2018-07-20T23:44:31.639Z,4.17
2018-07-20T23:47:03.189Z,3.20
2018-07-20T23:49:34.850Z,3.97
2018-07-20T23:52:06.422Z,4.80
2018-07-20T23:54:37.909Z,4.60
2018-07-20T23:57:09.424Z,4.10
2018-07-20T23:59:41.004Z,3.43
